sensor_id;sensor_type;location;lat;lon;timestamp;pressure;altitude;pressure_sealevel;temperature;humidity
75549;BME280;64133;56.002;37.208;2024-03-22T00:03:07;99432.08;;;2.88;48.48
75549;BME280;64133;56.002;37.208;2024-03-22T00:08:12;99421.90;;;2.92;49.09
75549;BME280;64133;56.002;37.208;2024-03-22T00:13:17;99421.77;;;2.50;48.77
75549;BME280;64133;56.002;37.208;2024-03-22T00:18:22;99421.32;;;2.23;48.62
75549;BME280;64133;56.002;37.208;2024-03-22T00:23:27;99423.64;;;2.38;49.08
75549;BME280;64133;56.002;37.208;2024-03-22T00:28:32;99423.86;;;2.61;48.48
75549;BME280;64133;56.002;37.208;2024-03-22T00:33:37;99419.16;;;2.50;48.65
75549;BME280;64133;56.002;37.208;2024-03-22T00:38:42;99423.56;;;2.31;49.02
75549;BME280;64133;56.002;37.208;2024-03-22T00:43:47;99428.06;;;2.28;49.42
75549;BME280;64133;56.002;37.208;2024-03-22T00:48:52;99418.07;;;2.10;49.82
75549;BME280;64133;56.002;37.208;2024-03-22T00:53:57;99405.98;;;1.90;50.11
75549;BME280;64133;56.002;37.208;2024-03-22T00:59:02;99404.89;;;2.04;50.24
75549;BME280;64133;56.002;37.208;2024-03-22T01:04:07;99397.07;;;1.76;50.41
75549;BME280;64133;56.002;37.208;2024-03-22T01:09:12;99403.39;;;1.90;50.55
75549;BME280;64133;56.002;37.208;2024-03-22T01:14:18;99394.20;;;2.01;50.10
75549;BME280;64133;56.002;37.208;2024-03-22T01:19:23;99394.30;;;1.90;49.98
75549;BME280;64133;56.002;37.208;2024-03-22T01:24:28;99383.87;;;1.62;50.24
75549;BME280;64133;56.002;37.208;2024-03-22T01:29:33;99390.07;;;1.79;50.28
75549;BME280;64133;56.002;37.208;2024-03-22T01:34:38;99375.71;;;1.61;50.79
75549;BME280;64133;56.002;37.208;2024-03-22T01:39:43;99382.92;;;1.55;51.38
75549;BME280;64133;56.002;37.208;2024-03-22T01:44:48;99383.20;;;1.48;51.55
75549;BME280;64133;56.002;37.208;2024-03-22T01:49:53;99383.20;;;1.48;50.88
75549;BME280;64133;56.002;37.208;2024-03-22T01:54:58;99377.80;;;1.53;50.87
75549;BME280;64133;56.002;37.208;2024-03-22T02:00:03;99368.14;;;1.65;50.35
75549;BME280;64133;56.002;37.208;2024-03-22T02:05:16;99361.34;;;1.44;50.80
75549;BME280;64133;56.002;37.208;2024-03-22T02:10:20;99359.39;;;1.39;51.32
75549;BME280;64133;56.002;37.208;2024-03-22T02:15:25;99354.14;;;1.78;50.60
75549;BME280;64133;56.002;37.208;2024-03-22T02:20:30;99352.73;;;1.90;51.08
75549;BME280;64133;56.002;37.208;2024-03-22T02:25:35;99355.98;;;1.76;50.88
75549;BME280;64133;56.002;37.208;2024-03-22T02:30:40;99356.38;;;1.48;51.06
75549;BME280;64133;56.002;37.208;2024-03-22T02:35:46;99343.65;;;1.52;51.45
75549;BME280;64133;56.002;37.208;2024-03-22T02:40:52;99338.41;;;1.54;51.96
75549;BME280;64133;56.002;37.208;2024-03-22T02:45:56;99327.02;;;1.18;51.45
75549;BME280;64133;56.002;37.208;2024-03-22T02:51:01;99323.47;;;1.30;51.48
75549;BME280;64133;56.002;37.208;2024-03-22T02:56:07;99323.50;;;1.19;51.56
75549;BME280;64133;56.002;37.208;2024-03-22T03:01:12;99320.78;;;1.22;51.72
75549;BME280;64133;56.002;37.208;2024-03-22T03:06:17;99317.19;;;0.86;52.30
75549;BME280;64133;56.002;37.208;2024-03-22T03:11:22;99318.44;;;1.27;51.92
75549;BME280;64133;56.002;37.208;2024-03-22T03:16:27;99321.13;;;0.94;53.06
75549;BME280;64133;56.002;37.208;2024-03-22T03:21:32;99312.67;;;0.70;52.64
75549;BME280;64133;56.002;37.208;2024-03-22T03:26:37;99307.23;;;0.66;53.65
75549;BME280;64133;56.002;37.208;2024-03-22T03:31:42;99306.72;;;0.26;53.60
75549;BME280;64133;56.002;37.208;2024-03-22T03:36:47;99305.64;;;-0.01;54.07
75549;BME280;64133;56.002;37.208;2024-03-22T03:41:52;99310.96;;;-0.04;54.14
75549;BME280;64133;56.002;37.208;2024-03-22T03:46:58;99300.73;;;0.04;54.06
75549;BME280;64133;56.002;37.208;2024-03-22T03:52:03;99296.25;;;0.19;53.82
75549;BME280;64133;56.002;37.208;2024-03-22T03:57:08;99292.05;;;0.47;53.74
75549;BME280;64133;56.002;37.208;2024-03-22T04:02:13;99291.26;;;0.24;53.71
75549;BME280;64133;56.002;37.208;2024-03-22T04:07:18;99286.15;;;0.33;54.12
75549;BME280;64133;56.002;37.208;2024-03-22T04:12:23;99285.09;;;0.17;54.24
75549;BME280;64133;56.002;37.208;2024-03-22T04:17:28;99297.84;;;0.11;54.21
75549;BME280;64133;56.002;37.208;2024-03-22T04:22:33;99294.56;;;0.28;53.97
75549;BME280;64133;56.002;37.208;2024-03-22T04:27:38;99288.52;;;0.17;54.19
75549;BME280;64133;56.002;37.208;2024-03-22T04:32:43;99291.67;;;0.66;53.77
75549;BME280;64133;56.002;37.208;2024-03-22T04:37:48;99296.73;;;0.49;53.77
75549;BME280;64133;56.002;37.208;2024-03-22T04:42:59;99286.63;;;1.03;53.22
75549;BME280;64133;56.002;37.208;2024-03-22T04:48:01;99283.20;;;1.02;53.53
75549;BME280;64133;56.002;37.208;2024-03-22T04:53:06;99272.80;;;0.83;52.92
75549;BME280;64133;56.002;37.208;2024-03-22T04:58:14;99274.44;;;1.53;52.68
75549;BME280;64133;56.002;37.208;2024-03-22T05:03:19;99263.28;;;1.95;52.26
75549;BME280;64133;56.002;37.208;2024-03-22T05:08:29;99264.39;;;1.72;51.61
75549;BME280;64133;56.002;37.208;2024-03-22T05:13:33;99271.12;;;1.11;53.27
75549;BME280;64133;56.002;37.208;2024-03-22T05:18:38;99253.80;;;1.49;52.26
75549;BME280;64133;56.002;37.208;2024-03-22T05:23:43;99260.78;;;1.58;52.61
75549;BME280;64133;56.002;37.208;2024-03-22T05:28:48;99255.23;;;2.19;52.34
75549;BME280;64133;56.002;37.208;2024-03-22T05:33:53;99244.60;;;2.83;52.28
75549;BME280;64133;56.002;37.208;2024-03-22T05:38:58;99233.60;;;2.77;50.28
75549;BME280;64133;56.002;37.208;2024-03-22T05:44:03;99238.21;;;3.21;49.83
75549;BME280;64133;56.002;37.208;2024-03-22T05:49:08;99239.57;;;3.28;50.46
75549;BME280;64133;56.002;37.208;2024-03-22T05:54:13;99228.56;;;3.55;48.83
75549;BME280;64133;56.002;37.208;2024-03-22T05:59:18;99233.31;;;3.56;49.12
75549;BME280;64133;56.002;37.208;2024-03-22T06:04:23;99231.44;;;4.26;48.13
75549;BME280;64133;56.002;37.208;2024-03-22T06:09:28;99215.16;;;3.93;47.90
75549;BME280;64133;56.002;37.208;2024-03-22T06:14:37;99211.30;;;4.66;48.18
75549;BME280;64133;56.002;37.208;2024-03-22T06:19:42;99219.27;;;4.34;48.32
75549;BME280;64133;56.002;37.208;2024-03-22T06:24:50;99224.02;;;4.04;48.45
75549;BME280;64133;56.002;37.208;2024-03-22T06:29:55;99218.17;;;4.01;48.10
75549;BME280;64133;56.002;37.208;2024-03-22T06:35:00;99218.04;;;4.18;48.10
75549;BME280;64133;56.002;37.208;2024-03-22T06:40:07;99217.43;;;5.22;48.15
75549;BME280;64133;56.002;37.208;2024-03-22T06:45:13;99203.01;;;5.58;47.37
75549;BME280;64133;56.002;37.208;2024-03-22T06:50:18;99200.81;;;6.18;45.98
75549;BME280;64133;56.002;37.208;2024-03-22T06:55:23;99190.42;;;5.77;46.28
75549;BME280;64133;56.002;37.208;2024-03-22T07:00:28;99185.75;;;6.35;45.58
75549;BME280;64133;56.002;37.208;2024-03-22T07:05:33;99187.38;;;6.68;44.67
75549;BME280;64133;56.002;37.208;2024-03-22T07:10:40;99182.95;;;6.63;44.16
75549;BME280;64133;56.002;37.208;2024-03-22T07:15:46;99186.58;;;6.86;43.89
75549;BME280;64133;56.002;37.208;2024-03-22T07:20:52;99182.94;;;6.76;44.08
75549;BME280;64133;56.002;37.208;2024-03-22T07:25:57;99173.13;;;6.85;44.31
75549;BME280;64133;56.002;37.208;2024-03-22T07:31:02;99172.59;;;7.05;43.63
75549;BME280;64133;56.002;37.208;2024-03-22T07:36:07;99169.26;;;6.78;43.61
75549;BME280;64133;56.002;37.208;2024-03-22T07:41:13;99174.09;;;6.84;43.42
75549;BME280;64133;56.002;37.208;2024-03-22T07:46:19;99158.45;;;7.14;42.95
75549;BME280;64133;56.002;37.208;2024-03-22T07:51:24;99158.12;;;7.85;42.81
75549;BME280;64133;56.002;37.208;2024-03-22T07:56:29;99136.94;;;7.64;41.75
75549;BME280;64133;56.002;37.208;2024-03-22T08:01:34;99119.26;;;8.36;41.74
75549;BME280;64133;56.002;37.208;2024-03-22T08:06:39;99113.28;;;8.28;41.05
75549;BME280;64133;56.002;37.208;2024-03-22T08:11:47;99104.98;;;7.59;41.65
75549;BME280;64133;56.002;37.208;2024-03-22T08:16:52;99101.22;;;8.26;40.44
75549;BME280;64133;56.002;37.208;2024-03-22T08:21:57;99091.95;;;8.61;39.79
75549;BME280;64133;56.002;37.208;2024-03-22T08:27:02;99087.73;;;8.30;39.50
75549;BME280;64133;56.002;37.208;2024-03-22T08:32:08;99085.25;;;8.23;38.82
75549;BME280;64133;56.002;37.208;2024-03-22T08:37:13;99069.85;;;8.24;37.66
75549;BME280;64133;56.002;37.208;2024-03-22T08:42:18;99072.58;;;8.06;35.95
75549;BME280;64133;56.002;37.208;2024-03-22T08:47:23;99064.25;;;8.29;36.44
75549;BME280;64133;56.002;37.208;2024-03-22T08:52:28;99054.96;;;8.64;35.93
75549;BME280;64133;56.002;37.208;2024-03-22T08:57:33;99052.33;;;8.36;36.47
75549;BME280;64133;56.002;37.208;2024-03-22T09:02:38;99047.50;;;8.92;35.83
75549;BME280;64133;56.002;37.208;2024-03-22T09:07:43;99042.89;;;8.73;35.75
75549;BME280;64133;56.002;37.208;2024-03-22T09:12:49;99042.29;;;9.18;35.46
75549;BME280;64133;56.002;37.208;2024-03-22T09:17:54;99043.13;;;9.24;35.58
75549;BME280;64133;56.002;37.208;2024-03-22T09:22:59;99034.40;;;10.44;35.02
75549;BME280;64133;56.002;37.208;2024-03-22T09:28:04;99031.05;;;9.48;34.63
75549;BME280;64133;56.002;37.208;2024-03-22T09:33:09;99027.59;;;9.21;34.53
75549;BME280;64133;56.002;37.208;2024-03-22T09:38:14;99024.90;;;9.38;34.89
75549;BME280;64133;56.002;37.208;2024-03-22T09:43:19;99020.59;;;9.11;33.55
75549;BME280;64133;56.002;37.208;2024-03-22T09:48:24;99024.60;;;8.83;33.72
75549;BME280;64133;56.002;37.208;2024-03-22T09:53:29;99013.97;;;9.90;33.65
75549;BME280;64133;56.002;37.208;2024-03-22T09:58:35;99006.86;;;9.96;33.05
75549;BME280;64133;56.002;37.208;2024-03-22T10:03:40;99001.36;;;9.78;33.21
75549;BME280;64133;56.002;37.208;2024-03-22T10:08:45;98996.50;;;9.26;32.54
75549;BME280;64133;56.002;37.208;2024-03-22T10:13:50;98992.87;;;9.39;32.38
75549;BME280;64133;56.002;37.208;2024-03-22T10:18:55;98987.17;;;9.75;33.15
75549;BME280;64133;56.002;37.208;2024-03-22T10:24:01;98984.67;;;10.04;32.37
75549;BME280;64133;56.002;37.208;2024-03-22T10:29:07;98971.59;;;9.78;32.29
75549;BME280;64133;56.002;37.208;2024-03-22T10:34:13;98963.97;;;10.21;31.90
75549;BME280;64133;56.002;37.208;2024-03-22T10:39:18;98955.38;;;10.03;32.19
75549;BME280;64133;56.002;37.208;2024-03-22T10:44:23;98945.69;;;9.73;31.39
75549;BME280;64133;56.002;37.208;2024-03-22T10:49:28;98934.47;;;10.33;31.59
75549;BME280;64133;56.002;37.208;2024-03-22T10:54:34;98931.34;;;10.68;31.00
75549;BME280;64133;56.002;37.208;2024-03-22T10:59:40;98921.14;;;10.88;31.12
75549;BME280;64133;56.002;37.208;2024-03-22T11:04:43;98920.49;;;10.51;31.55
75549;BME280;64133;56.002;37.208;2024-03-22T11:09:54;98905.83;;;11.40;30.91
75549;BME280;64133;56.002;37.208;2024-03-22T11:14:59;98909.72;;;11.36;31.32
75549;BME280;64133;56.002;37.208;2024-03-22T11:20:06;98897.23;;;11.62;30.82
75549;BME280;64133;56.002;37.208;2024-03-22T11:25:11;98884.75;;;11.30;30.57
75549;BME280;64133;56.002;37.208;2024-03-22T11:30:16;98882.88;;;10.94;30.42
75549;BME280;64133;56.002;37.208;2024-03-22T11:35:21;98865.75;;;10.65;30.06
75549;BME280;64133;56.002;37.208;2024-03-22T11:40:26;98850.41;;;11.03;29.53
75549;BME280;64133;56.002;37.208;2024-03-22T11:45:32;98843.77;;;10.89;28.17
75549;BME280;64133;56.002;37.208;2024-03-22T11:50:38;98834.64;;;10.45;27.94
75549;BME280;64133;56.002;37.208;2024-03-22T11:55:43;98817.91;;;10.89;27.64
75549;BME280;64133;56.002;37.208;2024-03-22T12:00:49;98807.58;;;11.52;27.04
75549;BME280;64133;56.002;37.208;2024-03-22T12:05:55;98790.87;;;11.75;27.49
75549;BME280;64133;56.002;37.208;2024-03-22T12:11:00;98785.92;;;11.86;27.62
75549;BME280;64133;56.002;37.208;2024-03-22T12:16:06;98786.58;;;11.46;27.58
75549;BME280;64133;56.002;37.208;2024-03-22T12:21:11;98778.02;;;10.54;26.67
75549;BME280;64133;56.002;37.208;2024-03-22T12:26:16;98770.43;;;10.65;26.76
75549;BME280;64133;56.002;37.208;2024-03-22T12:31:21;98767.61;;;10.63;27.10
75549;BME280;64133;56.002;37.208;2024-03-22T12:36:26;98759.45;;;10.37;27.01
75549;BME280;64133;56.002;37.208;2024-03-22T12:41:31;98746.07;;;10.34;27.61
75549;BME280;64133;56.002;37.208;2024-03-22T12:46:36;98738.76;;;10.61;27.77
75549;BME280;64133;56.002;37.208;2024-03-22T12:51:41;98728.22;;;10.94;27.64
75549;BME280;64133;56.002;37.208;2024-03-22T12:56:47;98724.06;;;10.68;27.77
75549;BME280;64133;56.002;37.208;2024-03-22T13:01:52;98724.22;;;9.99;27.48
75549;BME280;64133;56.002;37.208;2024-03-22T13:06:58;98719.31;;;9.55;28.11
75549;BME280;64133;56.002;37.208;2024-03-22T13:12:03;98704.36;;;10.10;28.34
75549;BME280;64133;56.002;37.208;2024-03-22T13:17:08;98698.18;;;9.76;28.20
75549;BME280;64133;56.002;37.208;2024-03-22T13:22:13;98700.05;;;9.99;27.34
75549;BME280;64133;56.002;37.208;2024-03-22T13:27:18;98689.91;;;9.56;27.65
75549;BME280;64133;56.002;37.208;2024-03-22T13:32:25;98687.83;;;9.50;27.42
75549;BME280;64133;56.002;37.208;2024-03-22T13:37:30;98677.39;;;9.54;27.57
75549;BME280;64133;56.002;37.208;2024-03-22T13:42:35;98666.05;;;10.31;28.04
75549;BME280;64133;56.002;37.208;2024-03-22T13:47:40;98657.45;;;10.39;27.82
75549;BME280;64133;56.002;37.208;2024-03-22T13:52:45;98655.23;;;10.05;27.54
75549;BME280;64133;56.002;37.208;2024-03-22T13:57:50;98649.94;;;9.72;28.05
75549;BME280;64133;56.002;37.208;2024-03-22T14:02:55;98645.84;;;9.64;28.21
75549;BME280;64133;56.002;37.208;2024-03-22T14:08:00;98639.61;;;9.74;28.39
75549;BME280;64133;56.002;37.208;2024-03-22T14:13:06;98636.56;;;9.50;28.38
75549;BME280;64133;56.002;37.208;2024-03-22T14:18:11;98633.19;;;9.53;28.60
75549;BME280;64133;56.002;37.208;2024-03-22T14:23:16;98627.25;;;10.14;28.11
75549;BME280;64133;56.002;37.208;2024-03-22T14:28:21;98622.31;;;9.72;28.29
75549;BME280;64133;56.002;37.208;2024-03-22T14:33:26;98618.70;;;9.82;28.43
75549;BME280;64133;56.002;37.208;2024-03-22T14:38:32;98609.16;;;9.81;28.59
75549;BME280;64133;56.002;37.208;2024-03-22T14:43:36;98612.75;;;9.32;28.97
75549;BME280;64133;56.002;37.208;2024-03-22T14:48:41;98604.45;;;9.37;29.73
75549;BME280;64133;56.002;37.208;2024-03-22T14:53:46;98598.41;;;8.96;30.09
75549;BME280;64133;56.002;37.208;2024-03-22T14:58:52;98591.67;;;8.88;30.44
75549;BME280;64133;56.002;37.208;2024-03-22T15:03:57;98587.44;;;8.71;30.96
75549;BME280;64133;56.002;37.208;2024-03-22T15:09:02;98581.52;;;8.48;31.41
75549;BME280;64133;56.002;37.208;2024-03-22T15:14:07;98582.06;;;8.21;31.83
75549;BME280;64133;56.002;37.208;2024-03-22T15:19:12;98569.53;;;7.89;32.57
75549;BME280;64133;56.002;37.208;2024-03-22T15:24:17;98567.63;;;7.64;33.45
75549;BME280;64133;56.002;37.208;2024-03-22T15:29:23;98571.62;;;7.47;34.08
75549;BME280;64133;56.002;37.208;2024-03-22T15:34:28;98562.03;;;7.31;34.52
75549;BME280;64133;56.002;37.208;2024-03-22T15:39:33;98560.27;;;7.32;35.42
75549;BME280;64133;56.002;37.208;2024-03-22T15:44:38;98555.73;;;7.34;35.70
75549;BME280;64133;56.002;37.208;2024-03-22T15:49:43;98552.84;;;7.10;36.74
75549;BME280;64133;56.002;37.208;2024-03-22T15:54:48;98557.86;;;6.96;37.43
75549;BME280;64133;56.002;37.208;2024-03-22T15:59:53;98548.28;;;6.69;38.25
75549;BME280;64133;56.002;37.208;2024-03-22T16:04:58;98544.95;;;6.61;38.62
75549;BME280;64133;56.002;37.208;2024-03-22T16:10:04;98542.95;;;6.48;39.01
75549;BME280;64133;56.002;37.208;2024-03-22T16:15:10;98534.27;;;6.30;39.65
75549;BME280;64133;56.002;37.208;2024-03-22T16:20:15;98539.28;;;6.34;40.01
75549;BME280;64133;56.002;37.208;2024-03-22T16:25:20;98537.74;;;6.14;40.48
75549;BME280;64133;56.002;37.208;2024-03-22T16:30:28;98535.25;;;6.18;41.05
75549;BME280;64133;56.002;37.208;2024-03-22T16:35:33;98526.66;;;5.94;41.88
75549;BME280;64133;56.002;37.208;2024-03-22T16:40:40;98533.14;;;5.83;42.54
75549;BME280;64133;56.002;37.208;2024-03-22T16:45:43;98533.14;;;5.83;42.86
75549;BME280;64133;56.002;37.208;2024-03-22T16:50:48;98537.44;;;5.89;43.21
75549;BME280;64133;56.002;37.208;2024-03-22T16:55:57;98526.95;;;5.78;43.48
75549;BME280;64133;56.002;37.208;2024-03-22T17:01:04;98528.04;;;5.81;43.84
75549;BME280;64133;56.002;37.208;2024-03-22T17:06:12;98524.20;;;5.63;44.62
75549;BME280;64133;56.002;37.208;2024-03-22T17:11:19;98524.43;;;5.60;45.01
75549;BME280;64133;56.002;37.208;2024-03-22T17:16:23;98520.02;;;5.49;46.06
75549;BME280;64133;56.002;37.208;2024-03-22T17:21:29;98510.62;;;5.52;46.37
75549;BME280;64133;56.002;37.208;2024-03-22T17:26:45;98505.39;;;5.41;46.65
75549;BME280;64133;56.002;37.208;2024-03-22T17:31:59;98499.56;;;5.37;47.15
75549;BME280;64133;56.002;37.208;2024-03-22T17:37:04;98498.55;;;5.21;48.34
75549;BME280;64133;56.002;37.208;2024-03-22T17:42:10;98491.40;;;5.12;48.79
75549;BME280;64133;56.002;37.208;2024-03-22T17:47:15;98494.23;;;5.09;48.66
75549;BME280;64133;56.002;37.208;2024-03-22T17:52:20;98489.55;;;4.96;49.67
75549;BME280;64133;56.002;37.208;2024-03-22T17:57:26;98491.80;;;4.95;49.80
75549;BME280;64133;56.002;37.208;2024-03-22T18:07:45;98478.66;;;4.96;50.50
75549;BME280;64133;56.002;37.208;2024-03-22T18:12:50;98477.84;;;4.77;50.77
75549;BME280;64133;56.002;37.208;2024-03-22T18:17:56;98469.52;;;4.72;51.08
75549;BME280;64133;56.002;37.208;2024-03-22T18:23:05;98470.84;;;4.78;51.21
75549;BME280;64133;56.002;37.208;2024-03-22T18:28:09;98464.02;;;4.64;51.48
75549;BME280;64133;56.002;37.208;2024-03-22T18:33:17;98455.08;;;4.56;52.09
75549;BME280;64133;56.002;37.208;2024-03-22T18:38:19;98442.16;;;4.54;52.36
75549;BME280;64133;56.002;37.208;2024-03-22T18:43:24;98443.45;;;4.48;52.77
75549;BME280;64133;56.002;37.208;2024-03-22T18:48:29;98437.89;;;4.35;53.09
75549;BME280;64133;56.002;37.208;2024-03-22T18:53:35;98442.75;;;4.34;53.09
75549;BME280;64133;56.002;37.208;2024-03-22T18:58:40;98436.17;;;4.41;53.19
75549;BME280;64133;56.002;37.208;2024-03-22T19:03:47;98435.86;;;4.27;53.67
75549;BME280;64133;56.002;37.208;2024-03-22T19:08:52;98435.77;;;4.16;54.17
75549;BME280;64133;56.002;37.208;2024-03-22T19:14:00;98432.20;;;4.35;53.71
75549;BME280;64133;56.002;37.208;2024-03-22T19:19:08;98431.27;;;4.18;54.54
75549;BME280;64133;56.002;37.208;2024-03-22T19:24:15;98424.09;;;4.09;55.29
75549;BME280;64133;56.002;37.208;2024-03-22T19:29:20;98415.45;;;3.90;56.12
75549;BME280;64133;56.002;37.208;2024-03-22T19:34:26;98418.17;;;3.88;56.02
75549;BME280;64133;56.002;37.208;2024-03-22T19:39:31;98408.97;;;3.95;56.37
75549;BME280;64133;56.002;37.208;2024-03-22T19:44:36;98408.73;;;3.93;56.54
75549;BME280;64133;56.002;37.208;2024-03-22T19:49:41;98391.29;;;4.06;56.12
75549;BME280;64133;56.002;37.208;2024-03-22T19:54:49;98384.78;;;3.88;56.89
75549;BME280;64133;56.002;37.208;2024-03-22T19:59:54;98375.72;;;3.81;57.32
75549;BME280;64133;56.002;37.208;2024-03-22T20:04:59;98369.70;;;3.67;57.86
75549;BME280;64133;56.002;37.208;2024-03-22T20:10:05;98366.98;;;3.69;58.52
75549;BME280;64133;56.002;37.208;2024-03-22T20:15:10;98358.69;;;3.51;58.49
75549;BME280;64133;56.002;37.208;2024-03-22T20:20:15;98348.47;;;3.48;58.89
75549;BME280;64133;56.002;37.208;2024-03-22T20:25:20;98341.58;;;3.41;59.04
75549;BME280;64133;56.002;37.208;2024-03-22T20:30:25;98334.41;;;3.19;60.13
75549;BME280;64133;56.002;37.208;2024-03-22T20:35:31;98328.22;;;3.27;60.18
